Time;durP1;ratioP1;P1;durP2;ratioP2;P2;SDS_P1;SDS_P2;PMS_P1;PMS_P2;Temp;Humidity;BMP_temperature;BMP_pressure;BME280_temperature;BME280_humidity;BME280_pressure;Samples;Min_cycle;Max_cycle;Signal;HPM_P1;HPM_P2
2023/08/18 00:00:55;;;;;;;27.50;19.17;;;18.20;99.90;;;;;;4960434;28;20675;-71
2023/08/18 00:03:41;;;;;;;23.15;16.50;;;18.20;99.90;;;;;;4976744;28;20081;-71
2023/08/18 00:06:27;;;;;;;25.48;16.67;;;18.20;99.90;;;;;;4963073;28;20091;-71
2023/08/18 00:09:13;;;;;;;25.80;18.52;;;18.30;99.90;;;;;;4982816;28;20049;-71
2023/08/18 00:11:59;;;;;;;24.33;18.00;;;18.30;99.90;;;;;;4988098;28;20741;-71
2023/08/18 00:14:45;;;;;;;50.63;23.58;;;18.20;99.90;;;;;;4979756;28;20054;-71
2023/08/18 00:17:31;;;;;;;51.65;23.20;;;18.20;99.90;;;;;;4978811;28;20046;-71
2023/08/18 00:20:17;;;;;;;30.60;20.17;;;18.10;99.90;;;;;;4960861;28;20043;-71
2023/08/18 00:23:03;;;;;;;31.45;21.13;;;18.10;99.90;;;;;;4982075;28;20038;-71
2023/08/18 00:25:49;;;;;;;33.60;21.17;;;18.00;99.90;;;;;;4973933;28;20530;-71
2023/08/18 00:28:35;;;;;;;24.48;18.40;;;18.00;99.90;;;;;;4979785;28;20132;-71
2023/08/18 00:31:21;;;;;;;33.45;19.80;;;18.10;99.90;;;;;;4964621;28;20046;-71
2023/08/18 00:34:07;;;;;;;28.98;20.42;;;18.10;99.90;;;;;;4985189;28;20050;-71
2023/08/18 00:36:53;;;;;;;37.42;22.20;;;18.10;99.90;;;;;;4955318;28;20109;-72
2023/08/18 00:39:39;;;;;;;48.88;23.52;;;18.10;99.90;;;;;;4963511;28;20047;-71
2023/08/18 00:42:25;;;;;;;41.58;25.67;;;18.10;99.90;;;;;;4981462;28;20050;-71
2023/08/18 00:45:11;;;;;;;41.33;22.52;;;18.10;99.90;;;;;;4974349;28;20057;-71
2023/08/18 00:47:57;;;;;;;55.03;24.70;;;18.10;99.90;;;;;;4961338;28;20039;-71
2023/08/18 00:50:44;;;;;;;45.95;25.23;;;18.00;99.90;;;;;;4965118;28;20046;-71
2023/08/18 00:53:30;;;;;;;41.25;23.52;;;17.90;99.90;;;;;;4978315;28;20157;-71
2023/08/18 00:56:16;;;;;;;31.17;23.77;;;18.00;99.90;;;;;;4983170;28;20061;-71
2023/08/18 00:59:02;;;;;;;33.70;21.33;;;18.00;99.90;;;;;;4987247;28;20038;-71
2023/08/18 01:01:48;;;;;;;31.25;22.50;;;18.10;99.90;;;;;;4977307;28;20792;-71
2023/08/18 01:04:34;;;;;;;36.15;23.50;;;18.10;99.90;;;;;;4959344;28;20057;-72
2023/08/18 01:07:20;;;;;;;36.13;20.85;;;18.10;99.90;;;;;;4991233;28;20043;-71
2023/08/18 01:10:06;;;;;;;31.08;21.70;;;18.10;99.90;;;;;;4981705;28;20122;-71
2023/08/18 01:13:13;;;;;;;28.95;18.80;;;18.10;99.90;;;;;;4984751;28;20047;-72
2023/08/18 01:15:59;;;;;;;35.47;21.57;;;18.10;99.90;;;;;;4972396;28;20038;-72
2023/08/18 01:18:45;;;;;;;30.70;21.42;;;18.10;99.90;;;;;;4977440;28;20560;-72
2023/08/18 01:21:31;;;;;;;32.45;20.33;;;18.10;99.90;;;;;;4978415;28;20048;-72
2023/08/18 01:24:17;;;;;;;30.90;20.63;;;18.10;99.90;;;;;;4972434;28;20083;-72
2023/08/18 01:27:03;;;;;;;44.47;23.35;;;18.00;99.90;;;;;;4975894;28;20077;-72
2023/08/18 01:29:49;;;;;;;32.83;21.38;;;18.00;99.90;;;;;;4973439;28;20046;-72
2023/08/18 01:32:40;;;;;;;38.00;23.20;;;18.10;99.90;;;;;;4964397;28;20130;-72
2023/08/18 01:35:27;;;;;;;34.00;21.08;;;18.00;99.90;;;;;;4958166;28;20043;-72
2023/08/18 01:38:13;;;;;;;24.35;18.20;;;18.00;99.90;;;;;;4985261;28;20054;-71
2023/08/18 01:40:59;;;;;;;41.40;21.95;;;18.10;99.90;;;;;;4950580;28;20038;-71
2023/08/18 01:43:45;;;;;;;28.92;20.23;;;18.00;99.90;;;;;;4966996;28;20125;-71
2023/08/18 01:46:31;;;;;;;30.25;19.90;;;18.00;99.90;;;;;;4980580;28;20129;-71
2023/08/18 01:49:17;;;;;;;31.85;20.55;;;18.00;99.90;;;;;;4969058;28;20583;-71
2023/08/18 01:52:03;;;;;;;22.17;17.05;;;18.10;99.90;;;;;;4985712;28;20049;-72
2023/08/18 01:54:50;;;;;;;28.23;18.00;;;18.10;99.90;;;;;;4961146;28;20049;-71
2023/08/18 01:57:36;;;;;;;24.95;18.58;;;18.10;99.90;;;;;;4950508;28;20046;-72
2023/08/18 02:00:22;;;;;;;27.33;19.15;;;18.10;99.90;;;;;;4960663;28;20046;-72
2023/08/18 02:03:08;;;;;;;21.48;16.48;;;18.10;99.90;;;;;;4987467;28;20064;-72
2023/08/18 02:05:58;;;;;;;23.92;17.05;;;18.10;99.90;;;;;;4990169;28;20042;-72
2023/08/18 02:08:44;;;;;;;22.10;17.52;;;18.10;99.90;;;;;;4952807;28;20042;-72
2023/08/18 02:11:30;;;;;;;22.17;16.15;;;18.10;99.90;;;;;;4978734;28;20371;-72
2023/08/18 02:14:16;;;;;;;21.88;16.65;;;18.10;99.90;;;;;;4975803;28;20035;-72
2023/08/18 02:17:01;;;;;;;19.77;15.13;;;18.10;99.90;;;;;;4962796;28;20688;-72
2023/08/18 02:19:48;;;;;;;35.53;19.42;;;18.10;99.90;;;;;;4976242;28;20044;-72
2023/08/18 02:22:33;;;;;;;20.35;16.40;;;18.10;99.90;;;;;;4982073;28;20114;-72
2023/08/18 02:25:21;;;;;;;21.33;15.88;;;18.10;99.90;;;;;;4976643;28;20030;-72
2023/08/18 02:28:07;;;;;;;24.52;17.98;;;18.10;99.90;;;;;;4963738;28;20108;-72
2023/08/18 02:31:19;;;;;;;33.75;19.38;;;18.10;99.90;;;;;;4957708;28;20463;-72
2023/08/18 02:34:05;;;;;;;23.02;16.27;;;18.10;99.90;;;;;;4950307;28;20154;-72
2023/08/18 02:36:51;;;;;;;21.25;16.25;;;18.10;99.90;;;;;;4963656;28;20129;-72
2023/08/18 02:39:38;;;;;;;21.63;15.15;;;18.10;99.90;;;;;;4972606;28;20053;-72
2023/08/18 02:42:24;;;;;;;26.40;17.58;;;18.10;99.90;;;;;;4980250;28;20043;-72
2023/08/18 02:45:10;;;;;;;20.25;13.93;;;18.10;99.90;;;;;;4977294;28;20058;-72
2023/08/18 02:47:57;;;;;;;19.60;14.35;;;18.10;99.90;;;;;;4957471;28;20058;-72
2023/08/18 02:50:43;;;;;;;26.23;16.52;;;18.10;99.90;;;;;;4951189;28;20042;-72
2023/08/18 02:53:29;;;;;;;20.50;15.55;;;18.10;99.90;;;;;;4963003;28;20042;-72
2023/08/18 02:56:16;;;;;;;22.95;16.80;;;18.10;99.90;;;;;;4989450;28;20442;-72
2023/08/18 02:59:02;;;;;;;20.98;15.45;;;18.10;99.90;;;;;;4957262;28;20039;-72
2023/08/18 03:01:49;;;;;;;20.05;14.93;;;18.10;99.90;;;;;;4977549;28;20442;-72
2023/08/18 03:04:35;;;;;;;23.50;14.03;;;18.10;99.90;;;;;;4958146;28;20043;-72
2023/08/18 03:07:21;;;;;;;20.90;13.75;;;18.10;99.90;;;;;;4957420;28;20084;-73
2023/08/18 03:10:07;;;;;;;18.17;13.70;;;18.10;99.90;;;;;;4969824;28;20050;-72
2023/08/18 03:12:53;;;;;;;24.38;16.50;;;18.10;99.90;;;;;;4971016;28;20045;-73
2023/08/18 03:15:40;;;;;;;16.30;12.82;;;18.10;99.90;;;;;;4988790;28;20046;-72
2023/08/18 03:18:26;;;;;;;18.45;13.52;;;18.00;99.90;;;;;;4975623;28;20070;-72
2023/08/18 03:21:12;;;;;;;17.67;12.63;;;18.10;99.90;;;;;;4962561;28;20053;-72
2023/08/18 03:23:58;;;;;;;18.00;13.10;;;18.10;99.90;;;;;;4978105;28;20043;-73
2023/08/18 03:26:45;;;;;;;16.05;11.88;;;18.10;99.90;;;;;;4986710;28;20104;-71
2023/08/18 03:29:31;;;;;;;21.43;14.40;;;18.10;99.90;;;;;;4970690;28;20051;-71
2023/08/18 03:32:17;;;;;;;18.08;13.07;;;18.10;99.90;;;;;;4976802;28;20269;-71
2023/08/18 03:35:04;;;;;;;18.58;12.60;;;18.10;99.90;;;;;;4953317;28;20104;-72
2023/08/18 03:37:50;;;;;;;15.85;12.10;;;18.10;99.90;;;;;;4982644;28;20463;-72
2023/08/18 03:40:36;;;;;;;16.85;11.73;;;18.10;99.90;;;;;;4975409;28;20057;-72
2023/08/18 03:43:23;;;;;;;15.20;11.00;;;18.10;99.90;;;;;;4988698;28;20062;-72
2023/08/18 03:46:21;;;;;;;16.60;12.73;;;18.10;99.90;;;;;;4989958;28;20064;-71
2023/08/18 03:49:07;;;;;;;15.35;11.63;;;18.10;99.90;;;;;;4955727;28;20943;-71
2023/08/18 03:51:53;;;;;;;14.23;10.35;;;18.10;99.90;;;;;;4978757;28;20053;-72
2023/08/18 03:54:39;;;;;;;15.23;10.15;;;18.00;99.90;;;;;;4961734;28;20042;-71
2023/08/18 03:57:25;;;;;;;12.05;9.68;;;18.00;99.90;;;;;;4988094;28;20061;-72
2023/08/18 04:00:12;;;;;;;16.67;11.18;;;18.00;99.90;;;;;;4977004;28;20049;-72
2023/08/18 04:02:58;;;;;;;14.43;9.68;;;18.00;99.90;;;;;;4972842;28;20045;-72
2023/08/18 04:05:45;;;;;;;13.50;9.60;;;18.00;99.90;;;;;;4950404;28;20039;-72
2023/08/18 04:08:39;;;;;;;12.70;9.90;;;18.10;99.90;;;;;;4974753;28;20043;-72
2023/08/18 04:11:25;;;;;;;12.80;8.52;;;18.10;99.90;;;;;;4983472;28;20053;-72
2023/08/18 04:14:11;;;;;;;13.55;10.30;;;18.10;99.90;;;;;;4950480;28;20568;-72
2023/08/18 04:16:57;;;;;;;13.02;9.27;;;18.10;99.90;;;;;;4960241;28;20046;-72
2023/08/18 04:19:43;;;;;;;14.40;9.35;;;18.00;99.90;;;;;;4975090;28;20096;-71
2023/08/18 04:22:32;;;;;;;10.27;8.70;;;18.10;99.90;;;;;;4986213;28;20065;-72
2023/08/18 04:25:18;;;;;;;12.43;10.00;;;18.10;99.90;;;;;;4983184;28;20044;-71
2023/08/18 04:28:05;;;;;;;14.68;9.85;;;18.10;99.90;;;;;;4979913;28;20046;-71
2023/08/18 04:30:52;;;;;;;16.73;11.60;;;18.10;99.90;;;;;;4971196;28;20038;-71
2023/08/18 04:33:38;;;;;;;18.35;10.85;;;18.00;99.90;;;;;;4977091;28;20549;-71
2023/08/18 04:36:24;;;;;;;15.90;10.07;;;18.00;99.90;;;;;;4981642;28;20061;-72
2023/08/18 04:39:13;;;;;;;16.10;9.95;;;18.00;99.90;;;;;;4971729;28;20136;-72
2023/08/18 04:41:59;;;;;;;12.38;9.13;;;18.00;99.90;;;;;;4978768;28;20064;-72
2023/08/18 04:44:45;;;;;;;13.23;8.63;;;18.00;99.90;;;;;;4973480;28;20038;-72
2023/08/18 04:47:32;;;;;;;13.88;8.85;;;18.00;99.90;;;;;;4988988;28;20042;-72
2023/08/18 04:50:18;;;;;;;12.48;8.18;;;18.10;99.90;;;;;;4980918;28;20038;-71
2023/08/18 04:53:04;;;;;;;13.23;8.30;;;18.10;99.90;;;;;;4972346;28;20585;-72
2023/08/18 04:55:50;;;;;;;10.43;7.70;;;18.10;99.90;;;;;;4982442;28;20629;-72
2023/08/18 04:58:37;;;;;;;12.88;8.85;;;18.10;99.90;;;;;;4966361;28;20360;-72
2023/08/18 05:01:23;;;;;;;11.80;7.80;;;18.10;99.90;;;;;;4988048;28;20042;-72
2023/08/18 05:04:08;;;;;;;13.93;8.45;;;18.10;99.90;;;;;;4967018;28;20386;-72
2023/08/18 05:06:54;;;;;;;10.90;8.32;;;18.10;99.90;;;;;;4973050;28;20042;-72
2023/08/18 05:09:40;;;;;;;15.23;8.65;;;18.10;99.90;;;;;;4955285;28;20038;-72
2023/08/18 05:12:26;;;;;;;10.95;8.88;;;18.10;99.90;;;;;;4976915;28;20571;-72
2023/08/18 05:15:12;;;;;;;15.65;9.25;;;18.10;99.90;;;;;;4976236;28;20057;-71
2023/08/18 05:17:58;;;;;;;12.75;9.20;;;18.20;99.90;;;;;;4976743;28;20459;-72
2023/08/18 05:20:44;;;;;;;17.33;11.00;;;18.20;99.90;;;;;;4976241;28;20046;-71
2023/08/18 05:23:30;;;;;;;13.00;9.80;;;18.10;99.90;;;;;;4978581;28;20038;-72
2023/08/18 05:26:16;;;;;;;13.25;10.38;;;18.10;99.90;;;;;;4975025;28;20145;-71
2023/08/18 05:29:02;;;;;;;13.60;9.75;;;18.10;99.90;;;;;;4977183;28;20092;-72
2023/08/18 05:31:48;;;;;;;13.30;10.35;;;18.20;99.90;;;;;;4981461;28;20189;-71
2023/08/18 05:34:34;;;;;;;18.17;12.45;;;18.20;99.90;;;;;;4976619;28;20133;-71
2023/08/18 05:37:21;;;;;;;14.60;10.70;;;18.20;99.90;;;;;;4969586;28;20059;-71
2023/08/18 05:40:08;;;;;;;16.80;13.00;;;18.10;99.90;;;;;;4987957;28;20052;-71
2023/08/18 05:42:54;;;;;;;15.65;10.95;;;18.20;99.90;;;;;;4973945;28;20038;-71
2023/08/18 05:45:40;;;;;;;15.98;11.90;;;18.10;99.90;;;;;;4987398;28;20038;-71
2023/08/18 05:48:26;;;;;;;15.65;12.35;;;18.20;99.90;;;;;;4988044;28;20121;-71
2023/08/18 05:51:12;;;;;;;16.95;11.93;;;18.10;99.90;;;;;;4974789;28;20034;-71
2023/08/18 05:53:58;;;;;;;14.55;11.70;;;18.20;99.90;;;;;;4975581;28;20049;-71
2023/08/18 05:56:45;;;;;;;20.17;14.18;;;18.10;99.90;;;;;;4979233;28;20058;-71
2023/08/18 05:59:32;;;;;;;14.77;11.68;;;18.10;99.90;;;;;;4984125;28;20049;-71
2023/08/18 06:02:18;;;;;;;14.07;10.60;;;18.10;99.90;;;;;;4991414;28;20367;-71
2023/08/18 06:05:04;;;;;;;15.48;11.18;;;18.20;99.90;;;;;;4978844;28;20035;-71
2023/08/18 06:07:50;;;;;;;18.38;13.27;;;18.30;99.90;;;;;;4987872;28;20038;-71
2023/08/18 06:10:36;;;;;;;19.10;14.50;;;18.20;99.90;;;;;;4961260;28;20976;-71
2023/08/18 06:13:22;;;;;;;16.88;13.35;;;18.20;99.90;;;;;;4979047;28;20070;-71
2023/08/18 06:16:08;;;;;;;18.75;13.88;;;18.10;99.90;;;;;;4960064;28;20462;-71
2023/08/18 06:18:54;;;;;;;17.38;14.15;;;18.10;99.90;;;;;;4982832;28;20072;-71
2023/08/18 06:21:40;;;;;;;17.45;14.25;;;18.00;99.90;;;;;;4959515;28;20170;-71
2023/08/18 06:24:26;;;;;;;17.98;14.25;;;18.00;99.90;;;;;;4974282;28;20030;-71
2023/08/18 06:27:12;;;;;;;20.13;14.85;;;18.10;99.90;;;;;;4963091;28;20046;-71
2023/08/18 06:29:58;;;;;;;21.52;16.00;;;18.10;99.90;;;;;;4961718;28;20038;-71
2023/08/18 06:32:45;;;;;;;19.70;15.45;;;18.10;99.90;;;;;;4980465;28;20042;-71
2023/08/18 06:35:30;;;;;;;19.17;14.65;;;18.20;99.90;;;;;;4952730;28;20169;-72
2023/08/18 06:38:16;;;;;;;23.08;15.68;;;18.20;99.90;;;;;;4952777;28;20649;-72
2023/08/18 06:41:02;;;;;;;25.73;16.98;;;18.20;99.90;;;;;;4952806;28;20042;-72
2023/08/18 06:43:48;;;;;;;22.02;15.75;;;18.20;99.90;;;;;;4972626;28;20570;-72
2023/08/18 06:46:35;;;;;;;21.42;15.35;;;18.30;99.90;;;;;;4970616;28;20042;-72
2023/08/18 06:49:20;;;;;;;20.67;15.50;;;18.30;99.90;;;;;;4953231;28;20145;-71
2023/08/18 06:52:06;;;;;;;19.90;15.07;;;18.40;99.90;;;;;;4954987;28;20142;-72
2023/08/18 06:54:52;;;;;;;20.83;15.57;;;18.40;99.90;;;;;;4984073;28;20082;-71
2023/08/18 06:57:40;;;;;;;19.77;16.23;;;18.40;99.90;;;;;;4952688;28;20046;-72
2023/08/18 07:00:26;;;;;;;21.63;16.80;;;18.40;99.90;;;;;;4973369;28;20043;-71
2023/08/18 07:03:12;;;;;;;22.33;16.00;;;18.30;99.90;;;;;;4963464;28;20030;-71
2023/08/18 07:05:58;;;;;;;21.05;17.02;;;18.40;99.90;;;;;;4962153;28;20121;-72
2023/08/18 07:08:44;;;;;;;20.70;16.52;;;18.50;99.90;;;;;;4947800;28;20172;-72
2023/08/18 07:11:30;;;;;;;19.58;15.90;;;18.60;99.90;;;;;;4947695;29;20131;-72
2023/08/18 07:14:16;;;;;;;20.40;17.23;;;18.60;99.90;;;;;;4965064;28;20043;-72
2023/08/18 07:17:02;;;;;;;21.80;15.75;;;18.60;99.90;;;;;;4954853;28;20049;-71
2023/08/18 07:19:48;;;;;;;21.00;14.63;;;18.70;99.90;;;;;;4957903;28;20043;-71
2023/08/18 07:22:35;;;;;;;20.05;15.38;;;18.80;99.90;;;;;;4970946;28;20035;-71
2023/08/18 07:25:22;;;;;;;21.02;16.13;;;18.80;99.90;;;;;;5003924;28;20046;-71
2023/08/18 07:28:08;;;;;;;20.02;14.95;;;18.90;99.90;;;;;;4950895;28;20047;-73
2023/08/18 07:30:54;;;;;;;19.05;15.93;;;18.80;99.90;;;;;;4942375;28;20042;-72
2023/08/18 07:33:40;;;;;;;18.30;14.70;;;18.80;99.90;;;;;;4943125;29;20129;-73
2023/08/18 07:36:26;;;;;;;20.27;14.75;;;18.90;99.90;;;;;;4953041;28;20079;-72
2023/08/18 07:39:12;;;;;;;19.60;14.15;;;18.90;99.90;;;;;;4983332;28;20043;-72
2023/08/18 07:41:58;;;;;;;16.55;14.60;;;19.00;99.90;;;;;;4945065;28;20073;-72
2023/08/18 07:44:44;;;;;;;22.25;16.48;;;19.10;99.90;;;;;;4958857;28;20075;-72
2023/08/18 07:47:30;;;;;;;20.88;15.75;;;19.00;99.90;;;;;;4952422;28;20561;-71
2023/08/18 07:50:15;;;;;;;15.98;13.52;;;19.10;99.90;;;;;;4971857;28;20082;-73
2023/08/18 07:53:01;;;;;;;20.65;15.57;;;19.20;99.90;;;;;;4976361;28;20093;-73
2023/08/18 07:55:47;;;;;;;17.58;14.15;;;19.20;99.90;;;;;;4975014;28;20051;-71
2023/08/18 07:58:33;;;;;;;17.88;15.27;;;19.30;99.90;;;;;;4973166;28;20185;-71
2023/08/18 08:01:19;;;;;;;21.42;15.43;;;19.30;99.90;;;;;;4969228;28;20125;-71
2023/08/18 08:04:05;;;;;;;16.77;14.82;;;19.30;99.90;;;;;;4970143;28;20063;-71
2023/08/18 08:06:53;;;;;;;18.50;14.93;;;19.40;99.90;;;;;;4967191;28;20376;-71
2023/08/18 08:09:39;;;;;;;17.75;13.90;;;19.40;99.90;;;;;;4981690;28;20054;-71
2023/08/18 08:12:25;;;;;;;16.05;12.38;;;19.30;99.90;;;;;;4947140;28;20085;-71
2023/08/18 08:15:13;;;;;;;19.95;14.95;;;19.50;99.90;;;;;;4962356;28;20070;-71
2023/08/18 08:17:59;;;;;;;18.50;14.87;;;19.40;99.90;;;;;;4968270;28;20544;-73
2023/08/18 08:20:45;;;;;;;16.55;13.10;;;19.40;99.90;;;;;;4965012;28;20081;-72
2023/08/18 08:23:30;;;;;;;16.02;13.25;;;19.50;99.90;;;;;;4953602;28;20043;-72
2023/08/18 08:26:16;;;;;;;16.38;12.13;;;19.60;99.90;;;;;;4953795;28;20594;-72
2023/08/18 08:29:02;;;;;;;14.65;12.15;;;19.70;99.90;;;;;;4986497;28;20383;-72
2023/08/18 08:31:48;;;;;;;14.90;12.25;;;19.80;99.90;;;;;;4970201;28;20039;-72
2023/08/18 08:34:37;;;;;;;14.60;11.63;;;19.80;99.90;;;;;;4964358;28;20051;-72
2023/08/18 08:37:23;;;;;;;15.02;11.52;;;19.90;99.90;;;;;;4965063;28;20083;-73
2023/08/18 08:40:20;;;;;;;12.35;10.05;;;20.00;99.90;;;;;;4956178;28;20046;-73
2023/08/18 08:43:06;;;;;;;12.60;11.30;;;20.20;99.90;;;;;;4951072;29;20097;-73
2023/08/18 08:45:52;;;;;;;11.27;10.00;;;20.20;99.90;;;;;;4935055;29;20047;-73
2023/08/18 08:48:42;;;;;;;11.93;10.73;;;20.30;99.90;;;;;;4941539;29;20035;-73
2023/08/18 08:51:28;;;;;;;13.77;12.38;;;20.30;99.90;;;;;;4967044;28;20126;-73
2023/08/18 08:54:14;;;;;;;14.27;11.25;;;20.20;99.90;;;;;;4965379;28;20039;-73
2023/08/18 08:57:01;;;;;;;13.25;11.48;;;20.30;99.90;;;;;;4940575;29;20122;-73
2023/08/18 08:59:47;;;;;;;12.07;10.77;;;20.30;99.90;;;;;;4948362;28;20062;-73
2023/08/18 09:02:33;;;;;;;13.20;11.50;;;20.40;99.90;;;;;;4961465;28;20186;-73
2023/08/18 09:05:20;;;;;;;17.58;12.88;;;20.40;99.90;;;;;;4945327;29;20036;-72
2023/08/18 09:08:06;;;;;;;13.00;11.43;;;20.30;99.90;;;;;;4922726;29;20047;-76
2023/08/18 09:10:53;;;;;;;13.90;10.98;;;20.30;99.90;;;;;;4937401;28;20313;-73
2023/08/18 09:13:39;;;;;;;12.48;11.18;;;20.50;99.90;;;;;;4962260;28;20046;-73
2023/08/18 09:16:25;;;;;;;12.15;9.60;;;20.60;99.90;;;;;;4939207;29;20051;-73
2023/08/18 09:19:12;;;;;;;10.77;9.65;;;20.80;99.90;;;;;;4950754;28;20357;-73
2023/08/18 09:21:59;;;;;;;11.02;9.90;;;20.90;99.90;;;;;;4967722;28;20043;-73
2023/08/18 09:24:48;;;;;;;13.73;10.80;;;20.90;99.90;;;;;;4968998;28;20105;-73
2023/08/18 09:27:34;;;;;;;13.98;10.65;;;21.00;99.90;;;;;;4944741;29;20058;-73
2023/08/18 09:30:21;;;;;;;12.93;9.63;;;21.00;99.90;;;;;;4962304;28;20391;-73
2023/08/18 09:33:07;;;;;;;11.13;9.18;;;21.10;99.90;;;;;;4954528;28;20427;-73
2023/08/18 09:35:58;;;;;;;10.85;9.73;;;21.30;99.90;;;;;;4954039;28;20794;-73
2023/08/18 09:38:44;;;;;;;13.50;10.88;;;21.40;99.90;;;;;;4934946;29;20432;-73
2023/08/18 09:41:30;;;;;;;10.18;8.55;;;21.30;99.90;;;;;;4943221;29;20079;-73
2023/08/18 09:44:17;;;;;;;12.13;8.60;;;21.40;99.90;;;;;;4946603;29;20594;-73
2023/08/18 09:47:04;;;;;;;10.15;9.05;;;21.50;99.90;;;;;;4951416;29;20058;-73
2023/08/18 09:49:51;;;;;;;11.27;8.97;;;21.70;99.90;;;;;;4953343;29;20043;-73
2023/08/18 09:52:37;;;;;;;9.98;8.98;;;21.80;99.90;;;;;;4940478;28;20051;-73
2023/08/18 09:55:28;;;;;;;9.13;8.20;;;21.90;99.90;;;;;;4954817;28;20050;-73
2023/08/18 09:58:40;;;;;;;11.68;7.60;;;22.00;99.90;;;;;;4909610;29;20094;-73
2023/08/18 10:01:27;;;;;;;10.38;7.07;;;22.30;99.90;;;;;;4945743;29;20043;-73
2023/08/18 10:04:13;;;;;;;9.77;7.80;;;22.40;99.90;;;;;;4932578;29;20063;-72
2023/08/18 10:06:59;;;;;;;11.15;7.93;;;22.40;99.90;;;;;;4938045;29;20054;-72
2023/08/18 10:09:46;;;;;;;11.88;8.25;;;22.60;99.90;;;;;;4951224;28;20522;-73
2023/08/18 10:12:31;;;;;;;8.60;7.70;;;22.70;99.90;;;;;;4945754;29;20047;-73
2023/08/18 10:15:19;;;;;;;8.52;7.60;;;22.90;99.90;;;;;;4932389;29;20069;-73
2023/08/18 10:18:09;;;;;;;10.75;7.50;;;22.90;99.90;;;;;;4947223;28;20049;-72
2023/08/18 10:20:55;;;;;;;8.07;6.43;;;23.10;99.90;;;;;;4955531;28;20416;-72
2023/08/18 10:23:41;;;;;;;9.63;8.35;;;23.30;99.90;;;;;;4951506;28;20101;-72
2023/08/18 10:26:28;;;;;;;9.77;7.70;;;23.40;99.90;;;;;;4963677;28;20367;-72
2023/08/18 10:29:19;;;;;;;12.57;7.10;;;23.40;99.90;;;;;;4932163;29;20102;-72
2023/08/18 10:32:08;;;;;;;11.23;7.53;;;23.60;99.90;;;;;;4925466;29;20051;-72
2023/08/18 10:35:24;;;;;;;11.80;7.55;;;23.70;99.90;;;;;;4944714;29;20036;-72
2023/08/18 10:38:10;;;;;;;8.10;6.40;;;23.90;99.90;;;;;;4951820;28;20069;-73
2023/08/18 10:40:56;;;;;;;8.63;6.75;;;24.10;99.90;;;;;;4970723;28;20050;-73
2023/08/18 10:43:45;;;;;;;6.82;6.13;;;24.30;99.90;;;;;;4964298;28;20460;-73
2023/08/18 10:46:35;;;;;;;10.20;6.72;;;24.40;99.90;;;;;;4951037;28;20098;-72
2023/08/18 10:49:21;;;;;;;8.32;6.25;;;24.60;99.90;;;;;;4971456;28;20547;-73
2023/08/18 10:52:07;;;;;;;7.78;5.90;;;24.70;99.90;;;;;;4963208;28;20047;-73
2023/08/18 10:54:53;;;;;;;8.55;6.13;;;24.80;99.90;;;;;;4980491;28;20428;-72
2023/08/18 10:57:39;;;;;;;8.90;6.38;;;25.10;99.90;;;;;;4958341;28;20043;-72
2023/08/18 11:00:25;;;;;;;8.95;6.25;;;25.30;99.90;;;;;;4964500;28;20043;-72
2023/08/18 11:03:11;;;;;;;8.98;6.65;;;25.20;99.90;;;;;;4976700;28;20039;-73
2023/08/18 11:05:57;;;;;;;7.93;6.85;;;25.40;99.90;;;;;;4970349;28;20042;-73
2023/08/18 11:08:43;;;;;;;10.48;7.00;;;25.70;99.90;;;;;;4967665;28;20097;-73
2023/08/18 11:11:29;;;;;;;8.00;7.00;;;25.70;99.90;;;;;;4960508;28;20458;-73
2023/08/18 11:14:15;;;;;;;7.95;7.07;;;25.80;99.90;;;;;;4976837;28;20043;-73
2023/08/18 11:17:02;;;;;;;8.95;6.88;;;25.90;99.90;;;;;;4938703;28;20051;-74
2023/08/18 11:19:48;;;;;;;7.57;6.88;;;26.10;99.90;;;;;;4956332;28;20039;-73
2023/08/18 11:22:36;;;;;;;8.23;6.82;;;26.20;99.90;;;;;;4975464;28;20042;-73
2023/08/18 11:25:23;;;;;;;9.80;7.40;;;26.30;99.90;;;;;;4975555;28;20039;-73
2023/08/18 11:28:09;;;;;;;8.00;7.20;;;26.40;99.90;;;;;;4978849;28;20043;-73
2023/08/18 11:30:55;;;;;;;8.98;6.80;;;26.40;99.90;;;;;;4959536;28;20042;-73
2023/08/18 11:33:41;;;;;;;7.35;6.63;;;26.40;99.90;;;;;;4961590;28;20121;-73
2023/08/18 11:36:29;;;;;;;7.32;6.63;;;26.60;99.90;;;;;;4948527;28;20378;-73
2023/08/18 11:39:15;;;;;;;12.27;6.68;;;26.80;99.90;;;;;;4976402;28;20501;-73
2023/08/18 11:42:02;;;;;;;8.85;6.47;;;27.00;99.90;;;;;;4960277;28;20972;-73
2023/08/18 11:44:51;;;;;;;11.27;6.85;;;27.00;99.90;;;;;;4960437;28;20438;-73
2023/08/18 11:47:38;;;;;;;10.38;7.15;;;27.10;99.90;;;;;;4974305;28;20047;-73
2023/08/18 11:50:34;;;;;;;10.80;6.97;;;27.20;99.90;;;;;;4945815;28;20125;-73
2023/08/18 11:53:28;;;;;;;8.00;7.00;;;27.30;99.90;;;;;;4974072;28;21127;-73
2023/08/18 11:56:14;;;;;;;7.95;6.22;;;27.40;99.90;;;;;;4958786;28;20050;-73
2023/08/18 11:59:02;;;;;;;8.68;6.93;;;27.50;99.90;;;;;;4976292;28;20062;-73
2023/08/18 12:01:54;;;;;;;;;;;27.50;99.90;;;;;;4961454;28;20041;-73
2023/08/18 12:04:41;;;;;;;9.13;6.70;;;27.60;99.90;;;;;;4961878;28;20302;-73
2023/08/18 12:07:27;;;;;;;6.97;6.28;;;27.80;99.90;;;;;;4988750;28;20039;-73
2023/08/18 12:10:13;;;;;;;8.18;6.40;;;27.90;99.90;;;;;;4954790;28;20046;-73
2023/08/18 12:12:59;;;;;;;9.00;7.13;;;27.90;99.90;;;;;;4966125;28;20130;-73
2023/08/18 12:15:45;;;;;;;9.27;6.63;;;28.00;99.90;;;;;;4961295;28;20160;-72
2023/08/18 12:18:31;;;;;;;8.70;6.20;;;28.00;99.90;;;;;;4973262;28;20046;-72
2023/08/18 12:21:17;;;;;;;9.60;6.13;;;28.10;99.90;;;;;;4958711;28;20380;-72
2023/08/18 12:24:04;;;;;;;8.27;5.95;;;28.30;99.90;;;;;;4959623;28;20047;-72
2023/08/18 12:26:50;;;;;;;10.05;5.82;;;28.40;99.90;;;;;;4957318;28;20799;-72
2023/08/18 12:29:36;;;;;;;9.35;6.20;;;28.60;99.90;;;;;;4970851;28;20089;-72
2023/08/18 12:32:22;;;;;;;12.65;5.90;;;28.70;99.90;;;;;;4973340;28;20159;-72
2023/08/18 12:35:08;;;;;;;8.50;5.93;;;28.80;99.90;;;;;;4969929;28;20483;-72
2023/08/18 12:37:54;;;;;;;8.25;6.20;;;28.90;99.90;;;;;;4946191;28;20060;-72
2023/08/18 12:40:40;;;;;;;6.65;5.78;;;28.90;99.90;;;;;;4973090;28;20042;-72
2023/08/18 12:43:26;;;;;;;6.97;5.45;;;29.00;99.90;;;;;;4978230;28;20050;-72
2023/08/18 12:46:12;;;;;;;9.80;5.75;;;29.00;99.90;;;;;;4966840;28;20043;-72
2023/08/18 12:48:58;;;;;;;8.88;5.88;;;29.10;99.90;;;;;;4966988;28;20129;-72
2023/08/18 12:51:44;;;;;;;6.45;5.75;;;29.20;99.90;;;;;;4952125;28;20543;-72
2023/08/18 12:54:31;;;;;;;8.93;5.63;;;29.20;99.90;;;;;;4968150;28;20042;-72
2023/08/18 12:57:17;;;;;;;6.93;5.93;;;29.40;99.90;;;;;;4944142;28;20547;-72
2023/08/18 13:00:04;;;;;;;8.15;5.35;;;29.50;99.90;;;;;;4973227;28;20741;-72
2023/08/18 13:02:49;;;;;;;5.85;4.93;;;29.60;99.90;;;;;;4981917;28;20042;-72
2023/08/18 13:05:35;;;;;;;8.00;5.63;;;29.70;99.90;;;;;;4962255;28;20113;-72
2023/08/18 13:08:21;;;;;;;6.85;5.07;;;29.70;99.90;;;;;;4966353;28;20047;-72
2023/08/18 13:11:07;;;;;;;6.47;5.43;;;29.70;99.90;;;;;;4968475;28;20039;-72
2023/08/18 13:13:53;;;;;;;6.90;5.30;;;29.80;99.90;;;;;;4976592;28;20490;-72
2023/08/18 13:16:41;;;;;;;6.20;5.05;;;29.80;99.90;;;;;;4985989;28;20076;-72
2023/08/18 13:19:27;;;;;;;5.85;5.18;;;29.90;99.90;;;;;;4970849;28;20082;-72
2023/08/18 13:22:13;;;;;;;8.65;5.47;;;29.90;99.90;;;;;;4969933;28;20035;-72
2023/08/18 13:25:11;;;;;;;8.25;5.57;;;30.10;99.90;;;;;;4957162;28;20093;-72
2023/08/18 13:27:57;;;;;;;7.22;4.78;;;30.20;99.90;;;;;;4958379;28;20035;-72
2023/08/18 13:30:43;;;;;;;6.25;4.85;;;30.50;99.90;;;;;;4971073;28;20107;-72
2023/08/18 13:33:29;;;;;;;5.03;4.43;;;31.00;99.90;;;;;;4971585;28;20073;-72
2023/08/18 13:36:14;;;;;;;7.28;4.63;;;33.50;99.90;;;;;;4943980;28;20631;-72
2023/08/18 13:39:00;;;;;;;5.28;4.35;;;37.60;96.20;;;;;;4984622;28;20144;-72
2023/08/18 13:41:47;;;;;;;5.78;3.88;;;40.80;92.80;;;;;;4984721;28;20042;-72
2023/08/18 13:44:33;;;;;;;4.67;3.63;;;43.30;84.50;;;;;;4975161;28;20034;-73
2023/08/18 13:47:20;;;;;;;7.27;3.60;;;44.10;77.40;;;;;;4954137;28;20089;-74
2023/08/18 13:50:06;;;;;;;6.68;3.58;;;45.40;74.80;;;;;;4986080;28;20050;-74
2023/08/18 13:52:52;;;;;;;3.88;3.20;;;46.30;71.80;;;;;;4962387;28;20121;-73
2023/08/18 13:55:38;;;;;;;4.50;3.58;;;47.00;67.80;;;;;;4977273;28;20057;-73
2023/08/18 13:58:24;;;;;;;3.78;3.10;;;46.20;65.20;;;;;;4977314;28;20084;-73
2023/08/18 14:01:11;;;;;;;4.55;3.30;;;47.30;64.70;;;;;;4969536;28;20058;-74
2023/08/18 14:03:59;;;;;;;4.75;3.60;;;47.40;63.00;;;;;;4975179;28;20459;-74
2023/08/18 14:06:45;;;;;;;6.25;3.40;;;47.20;60.90;;;;;;4960536;28;20061;-75
2023/08/18 14:09:31;;;;;;;41.40;6.60;;;47.60;60.60;;;;;;4986141;28;20559;-75
2023/08/18 14:12:17;;;;;;;9.82;3.92;;;48.10;61.30;;;;;;4975646;28;20053;-74